createdAt,value
2022-12-25T00:00:05.318Z,94.73
2022-12-25T00:05:04.442Z,94.44
2022-12-25T00:10:03.981Z,94.19
2022-12-25T00:15:03.968Z,94.13
2022-12-25T00:20:03.700Z,94.52
2022-12-25T00:25:03.432Z,94.62
2022-12-25T00:30:03.200Z,94.33
2022-12-25T00:35:03.711Z,94.10
2022-12-25T00:40:03.761Z,94.06
2022-12-25T00:45:04.826Z,93.88
2022-12-25T00:50:04.000Z,93.74
2022-12-25T00:55:03.289Z,93.85
2022-12-25T01:00:03.385Z,93.84
2022-12-25T01:05:04.825Z,93.89
2022-12-25T01:10:13.261Z,93.93
2022-12-25T01:15:05.307Z,93.82
2022-12-25T01:20:04.031Z,93.75
2022-12-25T01:25:03.664Z,93.82
2022-12-25T01:30:03.597Z,93.82
2022-12-25T01:35:03.634Z,94.08
2022-12-25T01:40:04.083Z,94.58
2022-12-25T01:45:23.307Z,94.41
2022-12-25T01:50:04.466Z,94.75
2022-12-25T01:55:03.808Z,94.40
2022-12-25T02:00:05.183Z,94.26
2022-12-25T02:05:07.573Z,93.97
2022-12-25T02:10:03.974Z,94.04
2022-12-25T02:15:06.802Z,94.22
2022-12-25T02:20:21.420Z,94.68
2022-12-25T02:25:19.095Z,94.72
2022-12-25T02:30:05.481Z,94.25
2022-12-25T02:35:09.843Z,93.96
2022-12-25T02:40:10.895Z,93.84
2022-12-25T02:45:13.403Z,93.95
2022-12-25T02:50:15.300Z,93.69
2022-12-25T02:55:18.112Z,93.92
2022-12-25T03:00:15.059Z,94.16
2022-12-25T03:05:19.446Z,94.50
2022-12-25T03:10:16.934Z,94.24
2022-12-25T03:15:15.522Z,94.06
2022-12-25T03:20:14.471Z,93.89
2022-12-25T03:25:13.124Z,93.91
2022-12-25T03:30:13.244Z,93.81
2022-12-25T03:35:19.907Z,93.64
2022-12-25T03:40:22.435Z,93.69
2022-12-25T03:45:20.668Z,93.89
2022-12-25T03:50:17.499Z,93.94
2022-12-25T03:55:18.009Z,94.07
2022-12-25T04:00:13.470Z,94.06
2022-12-25T04:05:13.345Z,94.30
2022-12-25T04:10:13.483Z,94.15
2022-12-25T04:15:12.906Z,94.16
2022-12-25T04:20:13.288Z,94.21
2022-12-25T04:25:12.933Z,94.09
2022-12-25T04:30:13.364Z,94.27
2022-12-25T04:35:13.102Z,94.29
2022-12-25T04:40:03.806Z,94.23
2022-12-25T04:45:03.376Z,94.14
2022-12-25T04:50:03.760Z,94.01
2022-12-25T04:55:04.182Z,93.97
2022-12-25T05:00:04.524Z,93.95
2022-12-25T05:05:03.716Z,93.99
2022-12-25T05:10:03.056Z,94.09
2022-12-25T05:15:03.048Z,94.06
2022-12-25T05:20:04.483Z,93.94
2022-12-25T05:25:02.887Z,94.07
2022-12-25T05:30:03.199Z,94.18
2022-12-25T05:35:03.488Z,94.32
2022-12-25T05:40:03.673Z,94.37
2022-12-25T05:45:03.172Z,94.26
2022-12-25T05:50:04.014Z,94.05
2022-12-25T05:55:03.195Z,94.15
2022-12-25T06:00:03.551Z,94.46
2022-12-25T06:05:03.276Z,94.44
2022-12-25T06:10:03.091Z,94.69
2022-12-25T06:15:03.178Z,94.80
2022-12-25T06:20:03.751Z,94.60
2022-12-25T06:25:02.811Z,94.62
2022-12-25T06:30:03.934Z,94.48
2022-12-25T06:35:03.211Z,94.57
2022-12-25T06:40:03.428Z,94.63
2022-12-25T06:45:02.938Z,94.54
2022-12-25T06:50:04.765Z,94.41
2022-12-25T06:55:02.788Z,94.29
2022-12-25T07:00:03.484Z,94.47
2022-12-25T07:05:03.336Z,94.44
2022-12-25T07:10:02.817Z,94.46
2022-12-25T07:15:02.879Z,94.38
2022-12-25T07:20:03.509Z,94.56
2022-12-25T07:25:02.775Z,94.59
2022-12-25T07:30:03.854Z,94.51
2022-12-25T07:35:03.716Z,94.90
2022-12-25T07:40:03.550Z,95.18
2022-12-25T07:45:02.955Z,95.12
2022-12-25T07:50:03.294Z,95.19
2022-12-25T07:55:02.793Z,95.18
2022-12-25T08:00:03.706Z,94.84
2022-12-25T08:05:03.049Z,94.62
2022-12-25T08:10:03.341Z,94.69
2022-12-25T08:15:03.004Z,94.28
2022-12-25T08:20:03.396Z,94.51
2022-12-25T08:25:03.271Z,94.68
2022-12-25T08:30:03.168Z,94.75
2022-12-25T08:35:02.855Z,94.58
2022-12-25T08:40:03.084Z,94.44
2022-12-25T08:45:03.120Z,94.06
2022-12-25T08:50:02.876Z,94.17
2022-12-25T08:55:03.343Z,93.88
2022-12-25T09:00:03.768Z,93.88
2022-12-25T09:05:02.731Z,93.61
2022-12-25T09:10:03.052Z,93.63
2022-12-25T09:15:03.778Z,93.46
2022-12-25T09:20:02.884Z,93.62
2022-12-25T09:25:02.869Z,93.47
2022-12-25T09:30:03.881Z,93.71
2022-12-25T09:35:02.855Z,93.50
2022-12-25T09:40:03.443Z,93.38
2022-12-25T09:45:09.085Z,93.24
2022-12-25T09:50:09.883Z,92.81
2022-12-25T09:55:11.503Z,93.40
2022-12-25T10:00:03.993Z,93.37
2022-12-25T10:05:14.409Z,92.81
2022-12-25T10:10:19.576Z,92.67
2022-12-25T10:15:18.357Z,93.05
2022-12-25T10:20:13.205Z,92.70
2022-12-25T10:25:05.973Z,92.03
2022-12-25T10:30:13.449Z,91.62
2022-12-25T10:35:03.526Z,91.35
2022-12-25T10:40:22.360Z,91.09
2022-12-25T10:45:06.893Z,91.04
2022-12-25T10:50:09.583Z,90.88
2022-12-25T10:55:10.849Z,90.61
2022-12-25T11:00:04.891Z,90.25
2022-12-25T11:05:06.064Z,89.85
2022-12-25T11:10:14.186Z,89.42
2022-12-25T11:15:06.549Z,89.03
2022-12-25T11:20:12.689Z,88.83
2022-12-25T11:25:11.363Z,88.58
2022-12-25T11:30:04.089Z,88.48
2022-12-25T11:35:10.528Z,88.47
2022-12-25T11:40:03.908Z,88.23
2022-12-25T11:45:09.998Z,88.28
2022-12-25T11:50:06.597Z,88.59
2022-12-25T11:55:07.377Z,88.37
2022-12-25T12:00:05.725Z,88.29
2022-12-25T12:05:12.439Z,87.95
2022-12-25T12:10:12.358Z,87.71
2022-12-25T12:15:13.350Z,87.54
2022-12-25T12:20:09.820Z,87.53
2022-12-25T12:25:06.255Z,87.60
2022-12-25T12:30:05.079Z,87.60
2022-12-25T12:35:13.041Z,87.73
2022-12-25T12:40:04.229Z,87.67
2022-12-25T12:45:08.414Z,87.45
2022-12-25T12:50:02.911Z,87.26
2022-12-25T12:55:07.105Z,87.28
2022-12-25T13:00:10.530Z,87.94
2022-12-25T13:05:04.891Z,87.29
2022-12-25T13:10:12.754Z,87.39
2022-12-25T13:15:10.341Z,87.75
2022-12-25T13:20:04.282Z,88.29
2022-12-25T13:25:04.970Z,88.51
2022-12-25T13:30:12.352Z,88.58
2022-12-25T13:35:02.662Z,88.66
2022-12-25T13:40:06.409Z,88.66
2022-12-25T13:45:05.981Z,88.25
2022-12-25T13:50:14.673Z,87.87
2022-12-25T13:55:09.785Z,88.23
2022-12-25T14:00:07.212Z,88.92
2022-12-25T14:05:03.342Z,89.19
2022-12-25T14:10:03.158Z,89.30
2022-12-25T14:15:03.960Z,88.94
2022-12-25T14:20:08.411Z,88.97
2022-12-25T14:25:02.631Z,88.82
2022-12-25T14:30:03.132Z,88.71
2022-12-25T14:35:02.557Z,88.51
2022-12-25T14:40:05.693Z,88.71
2022-12-25T14:45:06.003Z,88.79
2022-12-25T14:50:12.203Z,88.86
2022-12-25T14:55:05.833Z,89.02
2022-12-25T15:00:06.964Z,89.29
2022-12-25T15:05:02.373Z,89.61
2022-12-25T15:10:47.171Z,90.05
2022-12-25T15:15:02.836Z,90.00
2022-12-25T15:20:03.229Z,90.16
2022-12-25T15:25:02.872Z,91.15
2022-12-25T15:30:14.040Z,91.14
2022-12-25T15:35:02.916Z,91.21
2022-12-25T15:40:02.773Z,91.67
2022-12-25T15:45:02.897Z,91.85
2022-12-25T15:50:02.382Z,91.97
2022-12-25T15:55:02.374Z,91.75
2022-12-25T16:00:03.023Z,91.48
2022-12-25T16:05:09.963Z,91.36
2022-12-25T16:10:02.426Z,91.37
2022-12-25T16:15:03.339Z,91.49
2022-12-25T16:20:02.815Z,91.69
2022-12-25T16:25:02.848Z,91.76
2022-12-25T16:30:03.263Z,91.90
2022-12-25T16:35:02.545Z,91.83
2022-12-25T16:40:02.771Z,91.87
2022-12-25T16:45:03.993Z,92.12
2022-12-25T16:50:04.767Z,92.65
2022-12-25T16:55:03.752Z,92.88
2022-12-25T17:00:03.794Z,92.88
2022-12-25T17:05:02.229Z,92.79
2022-12-25T17:10:03.766Z,92.88
2022-12-25T17:15:03.594Z,92.75
2022-12-25T17:20:03.652Z,92.64
2022-12-25T17:25:02.233Z,92.52
2022-12-25T17:30:02.851Z,92.62
2022-12-25T17:35:02.479Z,92.59
2022-12-25T17:40:02.792Z,93.01
2022-12-25T17:45:02.694Z,93.59
2022-12-25T17:50:02.751Z,94.20
2022-12-25T17:55:03.109Z,94.37
2022-12-25T18:00:03.293Z,94.04
2022-12-25T18:05:02.256Z,93.67
2022-12-25T18:10:02.699Z,93.62
2022-12-25T18:15:02.872Z,93.38
2022-12-25T18:20:02.884Z,93.25
2022-12-25T18:25:02.411Z,93.60
2022-12-25T18:30:02.969Z,94.00
2022-12-25T18:35:02.423Z,94.05
2022-12-25T18:40:03.105Z,93.96
2022-12-25T18:45:03.396Z,94.02
2022-12-25T18:50:02.648Z,94.04
2022-12-25T18:55:02.539Z,93.86
2022-12-25T19:00:03.650Z,93.94
2022-12-25T19:05:02.524Z,94.07
2022-12-25T19:10:02.545Z,93.94
2022-12-25T19:15:02.695Z,94.42
2022-12-25T19:20:04.620Z,94.39
2022-12-25T19:25:02.441Z,94.51
2022-12-25T19:30:02.893Z,94.72
2022-12-25T19:35:03.535Z,95.36
2022-12-25T19:40:03.060Z,95.81
2022-12-25T19:45:02.614Z,95.85
2022-12-25T19:50:02.856Z,96.06
2022-12-25T19:55:02.136Z,96.13
2022-12-25T20:00:03.499Z,95.82
2022-12-25T20:05:02.687Z,95.75
2022-12-25T20:10:02.291Z,95.57
2022-12-25T20:15:02.766Z,95.59
2022-12-25T20:20:02.147Z,95.32
2022-12-25T20:25:02.777Z,95.36
2022-12-25T20:30:02.576Z,95.25
2022-12-25T20:35:02.095Z,95.31
2022-12-25T20:40:02.060Z,95.39
2022-12-25T20:45:02.788Z,95.34
2022-12-25T20:50:02.270Z,95.39
2022-12-25T20:55:02.594Z,95.49
2022-12-25T21:00:04.071Z,96.06
2022-12-25T21:05:02.140Z,96.35
2022-12-25T21:10:02.956Z,96.76
2022-12-25T21:15:02.598Z,97.13
2022-12-25T21:20:02.431Z,97.76
2022-12-25T21:25:02.471Z,97.77
2022-12-25T21:30:14.971Z,97.86
2022-12-25T21:35:02.041Z,98.30
2022-12-25T21:40:02.321Z,98.33
2022-12-25T21:45:02.446Z,98.39
2022-12-25T21:50:11.961Z,98.33
2022-12-25T21:55:02.275Z,98.49
2022-12-25T22:00:04.073Z,98.74
2022-12-25T22:05:02.440Z,98.65
2022-12-25T22:10:02.122Z,98.69
2022-12-25T22:15:05.454Z,98.77
2022-12-25T22:20:02.811Z,98.96
2022-12-25T22:25:04.138Z,98.90
2022-12-25T22:30:02.886Z,98.64
2022-12-25T22:35:02.653Z,98.10
2022-12-25T22:40:03.063Z,98.26
2022-12-25T22:45:03.093Z,97.64
2022-12-25T22:50:02.291Z,97.73
2022-12-25T22:55:03.318Z,97.47
2022-12-25T23:00:03.944Z,97.21
2022-12-25T23:05:02.378Z,96.84
2022-12-25T23:10:02.780Z,96.52
2022-12-25T23:15:02.892Z,96.40
2022-12-25T23:20:13.089Z,95.96
2022-12-25T23:25:12.026Z,95.50
2022-12-25T23:30:04.108Z,95.30
2022-12-25T23:35:02.844Z,95.19
2022-12-25T23:40:02.540Z,95.07
2022-12-25T23:45:02.250Z,94.99
2022-12-25T23:50:02.017Z,94.78
2022-12-25T23:55:01.823Z,94.80
